createdAt,value
2023-02-14T00:02:06.797Z,19.27
2023-02-14T00:04:33.737Z,18.03
2023-02-14T00:07:00.532Z,22.70
2023-02-14T00:09:26.997Z,23.03
2023-02-14T00:11:53.477Z,16.13
2023-02-14T00:14:38.096Z,27.03
2023-02-14T00:17:04.606Z,16.70
2023-02-14T00:19:31.338Z,17.80
2023-02-14T00:21:57.834Z,24.17
2023-02-14T00:24:26.195Z,15.93
2023-02-14T00:26:53.411Z,16.27
2023-02-14T00:29:24.653Z,24.50
2023-02-14T00:31:51.381Z,19.00
2023-02-14T00:34:18.294Z,23.77
2023-02-14T00:36:46.160Z,26.77
2023-02-14T00:39:14.449Z,19.43
2023-02-14T00:41:42.068Z,21.47
2023-02-14T00:44:11.016Z,20.63
2023-02-14T00:46:37.544Z,21.83
2023-02-14T00:49:04.193Z,32.33
2023-02-14T00:51:33.795Z,25.47
2023-02-14T00:54:01.130Z,22.27
2023-02-14T00:56:27.699Z,26.77
2023-02-14T00:58:54.181Z,30.33
2023-02-14T01:01:20.746Z,27.17
2023-02-14T01:03:47.503Z,30.53
2023-02-14T01:06:14.889Z,27.53
2023-02-14T01:08:41.345Z,17.43
2023-02-14T01:11:18.921Z,23.73
2023-02-14T01:13:47.836Z,16.77
2023-02-14T01:16:18.519Z,19.27
2023-02-14T01:18:45.181Z,27.40
2023-02-14T01:21:27.667Z,25.27
2023-02-14T01:23:57.861Z,20.70
2023-02-14T01:26:25.561Z,20.10
2023-02-14T01:28:52.320Z,21.87
2023-02-14T01:31:23.087Z,20.60
2023-02-14T01:33:50.192Z,23.50
2023-02-14T01:36:24.114Z,26.50
2023-02-14T01:38:58.364Z,21.67
2023-02-14T01:41:29.213Z,25.40
2023-02-14T01:45:36.981Z,16.47
2023-02-14T01:48:03.536Z,28.20
2023-02-14T01:50:35.837Z,21.20
2023-02-14T01:53:12.387Z,18.57
2023-02-14T01:55:53.584Z,18.70
2023-02-14T01:58:24.499Z,22.10
2023-02-14T02:00:56.614Z,31.30
2023-02-14T02:03:44.012Z,21.33
2023-02-14T02:06:51.226Z,21.53
2023-02-14T02:10:05.511Z,15.60
2023-02-14T02:12:37.578Z,17.07
2023-02-14T02:15:06.460Z,16.97
2023-02-14T02:19:47.690Z,18.50
2023-02-14T02:24:44.088Z,20.90
2023-02-14T02:27:52.468Z,16.80
2023-02-14T02:34:45.200Z,23.57
2023-02-14T02:39:29.278Z,11.60
2023-02-14T02:42:48.022Z,20.83
2023-02-14T02:46:13.912Z,15.40
2023-02-14T02:50:59.303Z,17.30
2023-02-14T02:53:59.645Z,20.93
2023-02-14T02:56:48.942Z,18.27
2023-02-14T02:59:51.508Z,23.47
2023-02-14T03:03:14.130Z,20.23
2023-02-14T03:05:42.079Z,16.13
2023-02-14T03:08:08.556Z,17.77
2023-02-14T03:10:38.741Z,23.40
2023-02-14T03:14:49.719Z,20.23
2023-02-14T03:18:20.140Z,18.60
2023-02-14T03:22:04.569Z,19.53
2023-02-14T03:24:57.916Z,17.93
2023-02-14T03:27:41.300Z,18.73
2023-02-14T03:30:37.563Z,22.73
2023-02-14T03:33:17.910Z,17.03
2023-02-14T03:36:09.791Z,16.33
2023-02-14T03:39:11.271Z,17.63
2023-02-14T03:41:46.754Z,16.47
2023-02-14T03:44:24.983Z,15.90
2023-02-14T03:47:00.015Z,18.43
2023-02-14T03:49:34.341Z,25.30
2023-02-14T03:52:04.892Z,17.23
2023-02-14T03:54:33.429Z,19.60
2023-02-14T03:57:42.524Z,22.50
2023-02-14T04:00:10.628Z,19.70
2023-02-14T04:02:43.867Z,22.33
2023-02-14T04:05:26.566Z,16.53
2023-02-14T04:07:56.761Z,17.67
2023-02-14T04:10:24.778Z,14.33
2023-02-14T04:12:52.542Z,18.77
2023-02-14T04:15:19.208Z,14.30
2023-02-14T04:20:22.856Z,16.97
2023-02-14T04:22:50.796Z,15.57
2023-02-14T04:25:19.373Z,18.30
2023-02-14T04:27:45.992Z,21.50
2023-02-14T04:30:14.074Z,21.60
2023-02-14T04:32:40.926Z,17.83
2023-02-14T04:35:07.755Z,23.07
2023-02-14T04:37:34.409Z,15.93
2023-02-14T04:40:01.026Z,15.50
2023-02-14T04:42:27.547Z,17.57
2023-02-14T04:44:54.037Z,15.70
2023-02-14T04:47:20.531Z,17.83
2023-02-14T04:49:47.008Z,21.63
2023-02-14T04:52:14.416Z,16.30
2023-02-14T04:54:40.908Z,21.67
2023-02-14T04:57:07.425Z,21.57
2023-02-14T04:59:33.923Z,21.90
2023-02-14T05:02:00.486Z,18.37
2023-02-14T05:04:27.043Z,18.73
2023-02-14T05:06:53.534Z,19.73
2023-02-14T05:09:20.131Z,19.03
2023-02-14T05:11:46.626Z,23.47
2023-02-14T05:14:13.183Z,17.00
2023-02-14T05:16:39.777Z,19.17
2023-02-14T05:19:06.271Z,19.07
2023-02-14T05:21:32.759Z,15.67
2023-02-14T05:24:00.525Z,16.67
2023-02-14T05:26:28.044Z,22.83
2023-02-14T05:28:54.508Z,18.23
2023-02-14T05:31:21.144Z,18.53
2023-02-14T05:33:47.698Z,24.97
2023-02-14T05:36:14.194Z,21.67
2023-02-14T05:38:40.737Z,26.30
2023-02-14T05:41:07.219Z,24.37
2023-02-14T05:43:33.769Z,16.10
2023-02-14T05:46:00.429Z,16.23
2023-02-14T05:48:26.978Z,22.77
2023-02-14T05:50:53.442Z,18.90
2023-02-14T05:53:22.868Z,25.93
2023-02-14T05:55:49.333Z,17.00
2023-02-14T05:58:15.834Z,17.17
2023-02-14T06:00:42.317Z,18.47
2023-02-14T06:03:09.005Z,18.17
2023-02-14T06:05:35.501Z,21.63
2023-02-14T06:08:01.991Z,28.80
2023-02-14T06:10:28.734Z,24.63
2023-02-14T06:12:55.339Z,17.37
2023-02-14T06:15:22.615Z,23.00
2023-02-14T06:17:57.050Z,23.13
2023-02-14T06:20:24.121Z,22.97
2023-02-14T06:22:51.922Z,25.43
2023-02-14T06:25:19.483Z,21.20
2023-02-14T06:27:48.825Z,21.13
2023-02-14T06:30:17.899Z,21.33
2023-02-14T06:32:44.556Z,32.13
2023-02-14T06:35:11.185Z,23.47
2023-02-14T06:37:38.057Z,16.07
2023-02-14T06:40:05.554Z,42.73
2023-02-14T06:42:32.033Z,27.93
2023-02-14T06:44:58.545Z,30.23
2023-02-14T06:47:25.019Z,61.50
2023-02-14T06:49:51.500Z,42.43
2023-02-14T06:52:17.982Z,24.40
2023-02-14T06:54:44.484Z,26.83
2023-02-14T06:57:10.975Z,37.50
2023-02-14T06:59:37.471Z,31.80
2023-02-14T07:02:03.982Z,28.40
2023-02-14T07:04:30.539Z,31.30
2023-02-14T07:06:57.846Z,47.97
2023-02-14T07:09:24.507Z,28.07
2023-02-14T07:11:51.038Z,27.97
2023-02-14T07:14:17.525Z,41.67
2023-02-14T07:16:43.990Z,23.43
2023-02-14T07:19:10.518Z,28.33
2023-02-14T07:21:36.989Z,23.90
2023-02-14T07:24:03.498Z,29.20
2023-02-14T07:26:29.986Z,23.53
2023-02-14T07:28:56.446Z,22.07
2023-02-14T07:31:23.044Z,25.37
2023-02-14T07:33:51.277Z,21.90
2023-02-14T07:36:18.166Z,22.07
2023-02-14T07:38:44.704Z,27.80
2023-02-14T07:41:11.345Z,22.57
2023-02-14T07:43:38.861Z,24.33
2023-02-14T07:46:06.063Z,25.87
2023-02-14T07:48:34.328Z,27.27
2023-02-14T07:51:01.906Z,28.70
2023-02-14T07:53:28.679Z,24.77
2023-02-14T07:55:55.157Z,27.53
2023-02-14T07:58:21.815Z,29.53
2023-02-14T08:00:48.322Z,26.43
2023-02-14T08:03:15.477Z,28.73
2023-02-14T08:05:41.969Z,28.17
2023-02-14T08:08:08.465Z,24.90
2023-02-14T08:10:34.981Z,36.10
2023-02-14T08:13:02.660Z,24.03
2023-02-14T08:15:53.624Z,37.30
2023-02-14T08:18:26.345Z,31.47
2023-02-14T08:20:52.834Z,31.37
2023-02-14T08:23:20.358Z,26.83
2023-02-14T08:25:49.288Z,31.23
2023-02-14T08:28:16.121Z,29.63
2023-02-14T08:30:44.479Z,31.50
2023-02-14T08:33:11.275Z,42.03
2023-02-14T08:35:38.306Z,37.17
2023-02-14T08:38:05.561Z,32.67
2023-02-14T08:40:34.443Z,37.00
2023-02-14T08:43:00.924Z,36.00
2023-02-14T08:45:27.451Z,40.43
2023-02-14T08:47:53.991Z,41.03
2023-02-14T08:50:20.717Z,40.50
2023-02-14T08:52:47.230Z,40.33
2023-02-14T08:55:13.937Z,39.93
2023-02-14T08:57:40.713Z,42.60
2023-02-14T09:00:09.130Z,42.87
2023-02-14T09:02:35.870Z,51.73
2023-02-14T09:05:02.388Z,37.97
2023-02-14T09:07:28.898Z,46.80
2023-02-14T09:09:55.421Z,41.63
2023-02-14T09:12:21.940Z,44.37
2023-02-14T09:14:48.423Z,40.17
2023-02-14T09:17:16.423Z,44.47
2023-02-14T09:19:42.986Z,45.03
2023-02-14T09:22:10.860Z,42.50
2023-02-14T09:24:39.331Z,41.80
2023-02-14T09:27:06.525Z,39.03
2023-02-14T09:29:33.375Z,38.43
2023-02-14T09:32:01.826Z,34.57
2023-02-14T09:34:29.328Z,41.53
2023-02-14T09:37:13.825Z,34.50
2023-02-14T09:39:40.500Z,36.10
2023-02-14T09:44:31.091Z,35.03
2023-02-14T09:47:34.685Z,38.43
2023-02-14T09:50:17.397Z,31.67
2023-02-14T09:52:50.852Z,28.40
2023-02-14T09:55:18.377Z,28.47
2023-02-14T09:58:20.434Z,36.30
2023-02-14T10:01:01.889Z,23.93
2023-02-14T10:07:55.761Z,25.90
2023-02-14T10:11:11.986Z,24.57
2023-02-14T10:13:52.272Z,27.13
2023-02-14T10:16:43.543Z,23.47
2023-02-14T10:19:37.775Z,30.87
2023-02-14T10:22:15.564Z,33.40
2023-02-14T10:25:34.429Z,29.47
2023-02-14T10:28:01.924Z,25.80
2023-02-14T10:30:38.511Z,25.70
2023-02-14T10:33:32.461Z,28.83
2023-02-14T10:36:09.919Z,27.07
2023-02-14T10:41:55.778Z,22.27
2023-02-14T10:46:18.104Z,37.00
2023-02-14T10:49:54.869Z,22.77
2023-02-14T10:53:42.052Z,24.63
2023-02-14T10:56:33.865Z,24.60
2023-02-14T10:59:28.298Z,20.90
2023-02-14T11:01:58.611Z,21.77
2023-02-14T11:04:26.142Z,21.43
2023-02-14T11:06:53.367Z,21.80
2023-02-14T11:09:20.633Z,20.13
2023-02-14T11:11:53.898Z,26.73
2023-02-14T11:14:35.131Z,23.27
2023-02-14T11:17:30.802Z,22.93
2023-02-14T11:20:23.433Z,20.87
2023-02-14T11:22:50.392Z,19.53
2023-02-14T11:25:27.943Z,16.97
2023-02-14T11:28:17.566Z,26.00
2023-02-14T11:30:46.841Z,19.63
2023-02-14T11:33:37.829Z,19.57
2023-02-14T11:36:11.440Z,23.23
2023-02-14T11:38:40.320Z,24.63
2023-02-14T11:41:12.482Z,30.23
2023-02-14T11:43:44.732Z,18.43
2023-02-14T11:47:24.982Z,25.27
2023-02-14T11:50:09.846Z,21.00
2023-02-14T11:52:50.887Z,18.53
2023-02-14T11:55:34.499Z,27.13
2023-02-14T11:58:05.084Z,36.50
2023-02-14T12:00:32.887Z,18.07
2023-02-14T12:03:05.403Z,34.57
2023-02-14T12:05:46.843Z,20.77
2023-02-14T12:08:14.102Z,20.37
2023-02-14T12:10:41.619Z,24.50
2023-02-14T12:13:29.085Z,23.97
2023-02-14T12:15:58.096Z,26.23
2023-02-14T12:19:02.342Z,29.47
2023-02-14T12:21:57.433Z,36.60
2023-02-14T12:24:39.790Z,26.60
2023-02-14T12:27:29.928Z,22.83
2023-02-14T12:30:13.435Z,20.50
2023-02-14T12:32:50.931Z,24.50
2023-02-14T12:37:20.536Z,22.80
2023-02-14T12:43:23.283Z,19.17
2023-02-14T12:50:02.173Z,22.57
2023-02-14T12:53:49.307Z,24.13
2023-02-14T12:58:29.361Z,21.60
2023-02-14T13:03:03.501Z,21.17
2023-02-14T13:07:38.212Z,33.13
2023-02-14T13:11:53.856Z,28.33
2023-02-14T13:18:47.496Z,24.70
2023-02-14T13:21:21.844Z,21.97
2023-02-14T13:23:54.386Z,20.67
2023-02-14T13:26:37.180Z,25.57
2023-02-14T13:29:17.352Z,23.07
2023-02-14T13:31:45.212Z,21.57
2023-02-14T13:34:35.847Z,23.03
2023-02-14T13:37:07.355Z,28.70
2023-02-14T13:39:45.299Z,19.60
2023-02-14T13:42:12.867Z,24.90
2023-02-14T13:44:49.250Z,22.57
2023-02-14T13:47:27.129Z,22.23
2023-02-14T13:50:01.299Z,32.77
2023-02-14T13:52:48.164Z,21.30
2023-02-14T13:55:24.459Z,25.20
2023-02-14T13:58:18.623Z,22.90
2023-02-14T14:00:47.912Z,20.60
2023-02-14T14:04:04.585Z,22.53
2023-02-14T14:07:18.197Z,19.93
2023-02-14T14:09:56.191Z,20.27
2023-02-14T14:12:55.879Z,23.70
2023-02-14T14:15:22.373Z,22.50
2023-02-14T14:18:41.106Z,20.17
2023-02-14T14:21:29.333Z,19.97
2023-02-14T14:24:27.106Z,20.67
2023-02-14T14:27:44.312Z,24.13
2023-02-14T14:30:28.527Z,19.70
2023-02-14T14:33:12.195Z,22.50
2023-02-14T14:35:38.762Z,24.33
2023-02-14T14:38:05.232Z,20.23
2023-02-14T14:40:36.934Z,18.60
2023-02-14T14:43:37.644Z,18.53
2023-02-14T14:46:09.865Z,26.40
2023-02-14T14:48:56.617Z,20.00
2023-02-14T14:51:33.148Z,22.20
2023-02-14T14:54:06.530Z,19.20
2023-02-14T14:56:46.411Z,22.03
2023-02-14T14:59:48.600Z,21.50
2023-02-14T15:02:29.168Z,21.33
2023-02-14T15:04:55.715Z,21.70
2023-02-14T15:07:35.692Z,19.10
2023-02-14T15:10:02.814Z,16.83
2023-02-14T15:15:23.019Z,19.80
2023-02-14T15:17:50.062Z,16.33
2023-02-14T15:20:23.102Z,19.50
2023-02-14T15:22:52.199Z,16.93
2023-02-14T15:25:35.674Z,16.73
2023-02-14T15:28:02.739Z,18.80
2023-02-14T15:30:36.504Z,20.03
2023-02-14T15:33:06.681Z,22.87
2023-02-14T15:35:41.430Z,24.40
2023-02-14T15:38:13.142Z,20.73
2023-02-14T15:40:42.837Z,21.03
2023-02-14T15:43:29.518Z,19.93
2023-02-14T15:46:13.254Z,18.63
2023-02-14T15:48:40.875Z,19.17
2023-02-14T15:51:19.385Z,22.83
2023-02-14T15:54:00.934Z,23.20
2023-02-14T15:56:52.706Z,19.37
2023-02-14T15:59:28.902Z,28.07
2023-02-14T16:04:27.612Z,24.63
2023-02-14T16:07:26.253Z,26.43
2023-02-14T16:10:30.362Z,20.47
2023-02-14T16:13:19.769Z,19.70
2023-02-14T16:16:05.795Z,24.93
2023-02-14T16:21:31.373Z,17.70
2023-02-14T16:24:11.674Z,42.00
2023-02-14T16:26:43.767Z,44.53
2023-02-14T16:29:16.582Z,53.30
2023-02-14T16:32:16.275Z,27.47
2023-02-14T16:34:46.299Z,52.93
2023-02-14T16:37:30.885Z,57.53
2023-02-14T16:40:00.159Z,65.27
2023-02-14T16:42:27.091Z,59.67
2023-02-14T16:44:53.864Z,54.63
2023-02-14T16:47:20.896Z,40.23
2023-02-14T16:49:47.830Z,47.63
2023-02-14T16:52:25.073Z,45.33
2023-02-14T16:54:52.678Z,41.00
2023-02-14T16:57:29.141Z,40.20
2023-02-14T16:59:56.258Z,34.17
2023-02-14T17:02:27.396Z,30.60
2023-02-14T17:04:54.340Z,29.70
2023-02-14T17:07:21.266Z,30.13
2023-02-14T17:09:55.665Z,45.37
2023-02-14T17:12:31.323Z,39.17
2023-02-14T17:15:05.326Z,38.30
2023-02-14T17:17:33.543Z,34.43
2023-02-14T17:20:00.094Z,32.60
2023-02-14T17:22:26.586Z,34.27
2023-02-14T17:24:53.131Z,42.30
2023-02-14T17:27:19.627Z,40.53
2023-02-14T17:29:46.105Z,42.33
2023-02-14T17:32:13.703Z,35.77
2023-02-14T17:34:40.389Z,37.33
2023-02-14T17:37:06.874Z,45.70
2023-02-14T17:39:33.365Z,46.87
2023-02-14T17:41:59.905Z,38.53
2023-02-14T17:44:26.380Z,40.37
2023-02-14T17:46:53.919Z,44.03
2023-02-14T17:49:20.382Z,35.83
2023-02-14T17:51:46.851Z,31.13
2023-02-14T17:54:13.317Z,33.03
2023-02-14T17:56:39.816Z,36.33
2023-02-14T17:59:06.300Z,39.63
2023-02-14T18:01:33.714Z,36.53
2023-02-14T18:04:00.450Z,34.63
2023-02-14T18:06:26.902Z,29.27
2023-02-14T18:08:56.064Z,33.50
2023-02-14T18:11:25.698Z,43.87
2023-02-14T18:13:58.580Z,38.60
2023-02-14T18:16:26.171Z,34.97
2023-02-14T18:18:54.113Z,32.53
2023-02-14T18:21:21.154Z,35.00
2023-02-14T18:23:48.201Z,39.03
2023-02-14T18:26:17.483Z,40.43
2023-02-14T18:28:44.615Z,37.57
2023-02-14T18:31:17.728Z,45.90
2023-02-14T18:33:47.157Z,42.63
2023-02-14T18:36:23.405Z,35.73
2023-02-14T18:38:50.017Z,31.67
2023-02-14T18:41:19.203Z,31.40
2023-02-14T18:43:45.922Z,37.80
2023-02-14T18:46:16.575Z,34.17
2023-02-14T18:48:43.350Z,31.73
2023-02-14T18:51:16.938Z,34.50
2023-02-14T18:53:45.382Z,32.53
2023-02-14T18:56:16.156Z,32.97
2023-02-14T18:58:47.199Z,31.60
2023-02-14T19:01:18.411Z,41.23
2023-02-14T19:03:45.068Z,32.87
2023-02-14T19:06:12.643Z,29.97
2023-02-14T19:08:40.250Z,31.70
2023-02-14T19:11:23.089Z,30.87
2023-02-14T19:13:56.257Z,24.63
2023-02-14T19:16:27.777Z,35.27
2023-02-14T19:18:54.841Z,28.67
2023-02-14T19:21:27.249Z,27.50
2023-02-14T19:23:55.872Z,24.57
2023-02-14T19:26:29.236Z,30.10
2023-02-14T19:28:59.560Z,35.23
2023-02-14T19:31:27.165Z,32.27
2023-02-14T19:33:54.180Z,33.90
2023-02-14T19:36:22.739Z,31.50
2023-02-14T19:38:52.630Z,35.90
2023-02-14T19:41:26.720Z,33.17
2023-02-14T19:44:00.013Z,36.83
2023-02-14T19:46:30.269Z,33.47
2023-02-14T19:48:57.584Z,25.93
2023-02-14T19:51:31.356Z,27.63
2023-02-14T19:54:00.193Z,28.30
2023-02-14T19:56:33.092Z,28.93
2023-02-14T19:59:00.011Z,34.67
2023-02-14T20:01:45.596Z,30.97
2023-02-14T20:04:15.804Z,28.83
2023-02-14T20:06:44.105Z,30.40
2023-02-14T20:09:11.076Z,33.10
2023-02-14T20:11:50.728Z,28.80
2023-02-14T20:14:22.201Z,26.17
2023-02-14T20:16:49.358Z,26.40
2023-02-14T20:19:20.133Z,25.87
2023-02-14T20:21:49.292Z,27.30
2023-02-14T20:24:22.411Z,31.87
2023-02-14T20:26:50.624Z,29.43
2023-02-14T20:29:19.090Z,29.20
2023-02-14T20:31:50.398Z,28.20
2023-02-14T20:34:18.051Z,29.00
2023-02-14T20:36:52.097Z,28.60
2023-02-14T20:39:20.761Z,28.97
2023-02-14T20:41:49.208Z,28.33
2023-02-14T20:44:21.106Z,31.77
2023-02-14T20:46:51.312Z,29.60
2023-02-14T20:49:19.573Z,26.00
2023-02-14T20:51:48.826Z,26.23
2023-02-14T20:54:17.324Z,30.27
2023-02-14T20:56:43.891Z,29.00
2023-02-14T20:59:10.991Z,32.53
2023-02-14T21:01:38.421Z,31.03
2023-02-14T21:04:05.525Z,29.77
2023-02-14T21:06:35.526Z,35.30
2023-02-14T21:09:03.215Z,30.63
2023-02-14T21:11:29.783Z,27.63
2023-02-14T21:14:00.679Z,28.83
2023-02-14T21:16:28.929Z,30.30
2023-02-14T21:18:58.180Z,30.87
2023-02-14T21:21:35.358Z,28.90
2023-02-14T21:24:07.055Z,30.57
2023-02-14T21:26:34.368Z,32.27
2023-02-14T21:29:01.218Z,26.10
2023-02-14T21:31:27.818Z,32.23
2023-02-14T21:33:57.836Z,28.67
2023-02-14T21:36:28.125Z,27.33
2023-02-14T21:38:57.566Z,32.90
2023-02-14T21:41:29.787Z,32.10
2023-02-14T21:43:59.362Z,33.17
2023-02-14T21:46:31.723Z,26.27
2023-02-14T21:49:23.294Z,28.87
2023-02-14T21:51:49.978Z,32.60
2023-02-14T21:54:17.291Z,29.23
2023-02-14T21:56:44.598Z,35.20
2023-02-14T21:59:11.461Z,26.90
2023-02-14T22:01:40.847Z,32.97
2023-02-14T22:04:10.024Z,33.33
2023-02-14T22:06:39.177Z,37.00
2023-02-14T22:09:06.358Z,36.03
2023-02-14T22:11:33.654Z,35.47
2023-02-14T22:14:00.644Z,33.20
2023-02-14T22:16:27.256Z,37.60
2023-02-14T22:18:53.731Z,29.17
2023-02-14T22:21:26.033Z,38.80
2023-02-14T22:23:56.200Z,31.20
2023-02-14T22:26:27.249Z,26.57
2023-02-14T22:29:01.607Z,32.93
2023-02-14T22:31:34.123Z,33.27
2023-02-14T22:34:00.835Z,36.53
2023-02-14T22:36:27.483Z,33.30
2023-02-14T22:38:53.948Z,30.60
2023-02-14T22:41:23.368Z,33.37
2023-02-14T22:43:51.529Z,35.03
2023-02-14T22:46:22.688Z,31.47
2023-02-14T22:48:51.201Z,34.40
2023-02-14T22:51:33.782Z,27.40
2023-02-14T22:54:04.596Z,29.33
2023-02-14T22:56:35.160Z,31.13
2023-02-14T22:59:06.052Z,26.87
2023-02-14T23:01:34.620Z,33.60
2023-02-14T23:04:03.035Z,31.17
2023-02-14T23:06:32.991Z,34.67
2023-02-14T23:08:59.825Z,40.03
2023-02-14T23:11:32.533Z,31.27
2023-02-14T23:14:17.699Z,29.63
2023-02-14T23:17:03.627Z,35.87
2023-02-14T23:19:52.219Z,33.23
2023-02-14T23:22:34.758Z,29.17
2023-02-14T23:25:06.294Z,31.70
2023-02-14T23:27:43.996Z,35.63
2023-02-14T23:30:16.051Z,35.13
2023-02-14T23:32:42.910Z,26.97
2023-02-14T23:35:10.061Z,33.53
2023-02-14T23:37:36.592Z,36.53
2023-02-14T23:40:03.330Z,36.53
2023-02-14T23:42:29.797Z,33.90
2023-02-14T23:45:33.839Z,30.30
2023-02-14T23:48:04.693Z,31.63
2023-02-14T23:50:31.604Z,45.43
2023-02-14T23:52:58.796Z,38.53
2023-02-14T23:55:25.255Z,41.63
2023-02-14T23:57:51.732Z,42.53
